Time;durP1;ratioP1;P1;durP2;ratioP2;P2;SDS_P1;SDS_P2;PMS_P1;PMS_P2;Temp;Humidity;BMP_temperature;BMP_pressure;BME280_temperature;BME280_humidity;BME280_pressure;Samples;Min_cycle;Max_cycle;Signal;HPM_P1;HPM_P2
2021/01/21 00:01:48;;;;;;;21.80;8.53;;;;;;;-6.45;75.09;99949.98;1732642;81;21155;-55
2021/01/21 00:04:16;;;;;;;27.77;12.00;;;;;;;-6.41;75.07;99943.09;1729730;81;21114;-57
2021/01/21 00:06:43;;;;;;;32.73;13.27;;;;;;;-6.40;75.06;99935.27;1733284;81;21268;-54
2021/01/21 00:09:12;;;;;;;35.73;14.10;;;;;;;-6.38;75.05;99929.61;1731770;81;21474;-56
2021/01/21 00:11:39;;;;;;;36.97;15.47;;;;;;;-6.36;75.05;99944.06;1726806;81;21224;-56
2021/01/21 00:14:07;;;;;;;30.33;13.73;;;;;;;-6.35;75.04;99928.80;1731599;81;21566;-56
2021/01/21 00:16:34;;;;;;;34.83;15.47;;;;;;;-6.35;75.02;99931.00;1730700;81;21207;-55
2021/01/21 00:19:02;;;;;;;29.03;12.43;;;;;;;-6.34;74.99;99934.09;1728860;81;21656;-54
2021/01/21 00:21:29;;;;;;;39.30;15.33;;;;;;;-6.32;74.99;99936.74;1731944;81;21168;-56
2021/01/21 00:23:58;;;;;;;30.83;14.57;;;;;;;-6.32;74.98;99936.32;1690917;83;21206;-55
2021/01/21 00:26:26;;;;;;;31.80;13.53;;;;;;;-6.30;75.03;99938.98;1689902;82;21625;-54
2021/01/21 00:28:54;;;;;;;32.50;14.37;;;;;;;-6.30;75.04;99932.01;1680231;83;21187;-56
2021/01/21 00:31:21;;;;;;;34.90;15.97;;;;;;;-6.29;75.04;99934.17;1692729;82;21733;-54
2021/01/21 00:33:48;;;;;;;32.23;13.67;;;;;;;-6.29;75.03;99932.86;1689835;82;21641;-57
2021/01/21 00:36:16;;;;;;;43.67;18.00;;;;;;;-6.26;75.08;99927.27;1689444;82;21205;-56
2021/01/21 00:38:43;;;;;;;34.40;14.80;;;;;;;-6.23;75.06;99926.05;1691597;83;23025;-54
2021/01/21 00:41:10;;;;;;;36.27;15.43;;;;;;;-6.22;75.03;99928.23;1690838;83;21325;-56
2021/01/21 00:43:37;;;;;;;35.13;14.10;;;;;;;-6.21;75.11;99924.31;1685197;83;21403;-56
2021/01/21 00:46:05;;;;;;;41.40;17.23;;;;;;;-6.20;75.11;99922.58;1686652;82;21262;-55
2021/01/21 00:48:32;;;;;;;40.47;17.03;;;;;;;-6.18;75.12;99925.70;1694483;82;21215;-56
2021/01/21 00:51:02;;;;;;;41.80;16.43;;;;;;;-6.17;75.12;99918.30;1690827;83;21202;-56
2021/01/21 00:53:29;;;;;;;37.57;16.10;;;;;;;-6.15;75.18;99913.98;1687431;82;21188;-56
2021/01/21 00:55:56;;;;;;;33.23;15.30;;;;;;;-6.14;75.15;99911.83;1668361;83;21744;-56
2021/01/21 00:58:23;;;;;;;37.67;14.87;;;;;;;-6.14;75.19;99909.20;1663915;83;21807;-53
2021/01/21 01:00:51;;;;;;;32.93;14.87;;;;;;;-6.11;75.19;99912.30;1686209;83;21210;-55
2021/01/21 01:03:18;;;;;;;33.27;13.50;;;;;;;-6.08;75.25;99907.13;1688644;82;21186;-54
2021/01/21 01:05:47;;;;;;;29.33;12.33;;;;;;;-6.06;75.23;99901.92;1689075;83;21620;-55
2021/01/21 01:08:14;;;;;;;27.57;11.30;;;;;;;-6.04;75.25;99901.53;1670044;83;21611;-56
2021/01/21 01:10:41;;;;;;;37.47;15.07;;;;;;;-6.02;75.27;99891.94;1693335;83;21231;-55
2021/01/21 01:13:18;;;;;;;49.03;26.03;;;;;;;-5.98;75.26;99910.82;1806733;77;38267;-56
2021/01/21 01:15:46;;;;;;;40.00;18.93;;;;;;;-5.95;75.26;99909.13;1798990;78;21180;-54
2021/01/21 01:18:15;;;;;;;36.73;17.83;;;;;;;-5.86;75.18;99907.97;1798369;78;21373;-53
2021/01/21 01:20:42;;;;;;;35.77;15.47;;;;;;;-5.82;75.16;99899.75;1764773;80;21060;-54
2021/01/21 01:23:09;;;;;;;34.47;15.43;;;;;;;-5.83;75.16;99904.11;1741515;80;21321;-55
2021/01/21 01:25:37;;;;;;;33.80;15.87;;;;;;;-5.82;75.15;99895.39;1737077;80;21219;-57
2021/01/21 01:28:05;;;;;;;36.77;15.93;;;;;;;-5.80;75.18;99892.80;1736643;81;21500;-57
2021/01/21 01:30:33;;;;;;;35.30;14.50;;;;;;;-5.80;75.21;99886.25;1737667;80;21214;-56
2021/01/21 01:33:00;;;;;;;36.23;15.33;;;;;;;-5.79;75.21;99885.40;1740369;80;21228;-55
2021/01/21 01:35:29;;;;;;;39.83;16.17;;;;;;;-5.78;75.26;99876.65;1709624;81;21234;-55
2021/01/21 01:37:57;;;;;;;35.87;14.57;;;;;;;-5.77;75.33;99876.69;1753532;80;21107;-54
2021/01/21 01:40:25;;;;;;;25.60;9.97;;;;;;;-5.76;75.35;99871.91;1708796;81;21180;-56
2021/01/21 01:42:53;;;;;;;36.37;15.63;;;;;;;-5.75;75.42;99869.73;1739905;80;23247;-54
2021/01/21 01:45:21;;;;;;;33.63;15.47;;;;;;;-5.74;75.44;99875.44;1740948;80;21140;-56
2021/01/21 01:47:50;;;;;;;39.17;16.03;;;;;;;-5.72;75.49;99876.78;1741114;80;21143;-55
2021/01/21 01:50:23;;;;;;;30.50;12.63;;;;;;;-5.72;75.55;99868.92;1742103;80;21143;-56
2021/01/21 01:52:54;;;;;;;40.20;16.43;;;;;;;-5.72;75.64;99861.94;1741757;80;21148;-56
2021/01/21 01:55:23;;;;;;;25.27;10.23;;;;;;;-5.72;75.70;99871.12;1742787;80;21147;-56
2021/01/21 01:58:01;;;;;;;32.57;14.27;;;;;;;-5.71;75.74;99868.07;1743362;80;21155;-55
2021/01/21 02:00:30;;;;;;;33.33;14.97;;;;;;;-5.70;75.82;99858.04;1739429;80;21167;-55
2021/01/21 02:02:59;;;;;;;24.97;10.23;;;;;;;-5.72;75.90;99843.59;1729770;81;21112;-56
2021/01/21 02:05:29;;;;;;;36.13;15.00;;;;;;;-5.69;75.95;99848.41;1710002;80;21010;-55
2021/01/21 02:07:56;;;;;;;32.00;14.07;;;;;;;-5.70;75.97;99837.06;1740951;80;21386;-55
2021/01/21 02:10:24;;;;;;;29.67;11.87;;;;;;;-5.69;76.01;99844.47;1741120;80;21720;-55
2021/01/21 02:13:02;;;;;;;25.97;11.00;;;;;;;-5.69;76.10;99841.42;1731124;80;22124;-56
2021/01/21 02:15:59;;;;;;;35.23;15.57;;;;;;;-5.67;76.10;99846.28;1757447;77;21095;-55
2021/01/21 02:18:53;;;;;;;33.17;13.43;;;;;;;-5.65;76.22;99852.44;1712040;81;21562;-55
2021/01/21 02:21:51;;;;;;;33.47;13.70;;;;;;;-5.63;76.23;99850.73;1711476;82;21406;-55
2021/01/21 02:24:57;;;;;;;28.97;13.57;;;;;;;-5.59;76.22;99847.30;1778663;77;21123;-56
2021/01/21 02:27:26;;;;;;;30.00;13.97;;;;;;;-5.56;76.23;99839.49;1711666;80;21145;-57
2021/01/21 02:29:54;;;;;;;33.80;14.50;;;;;;;-5.53;76.23;99835.59;1734657;80;21226;-57
2021/01/21 02:32:50;;;;;;;29.20;12.50;;;;;;;-5.49;76.22;99826.93;1731767;80;21622;-55
2021/01/21 02:35:28;;;;;;;30.47;14.13;;;;;;;-5.43;76.30;99832.70;1863437;75;23181;-56
2021/01/21 02:37:57;;;;;;;29.87;12.60;;;;;;;-5.46;76.30;99832.66;1837138;76;21174;-54
2021/01/21 02:40:35;;;;;;;30.27;10.80;;;;;;;-5.45;76.34;99827.45;1721271;81;21234;-56
2021/01/21 02:43:11;;;;;;;29.07;12.00;;;;;;;-5.44;76.38;99820.01;1783591;78;21281;-55
2021/01/21 02:45:40;;;;;;;33.20;13.77;;;;;;;-5.45;76.44;99827.88;1756907;78;21218;-56
2021/01/21 02:48:08;;;;;;;33.47;13.43;;;;;;;-5.45;76.49;99835.75;1789243;78;21202;-56
2021/01/21 02:50:39;;;;;;;35.97;15.67;;;;;;;-5.43;76.55;99833.58;1790204;78;20960;-56
2021/01/21 02:53:06;;;;;;;35.17;13.77;;;;;;;-5.41;76.61;99829.25;1761777;78;21210;-56
2021/01/21 02:55:49;;;;;;;28.63;12.27;;;;;;;-5.38;76.59;99831.05;1786263;78;21090;-54
2021/01/21 02:58:23;;;;;;;32.60;12.50;;;;;;;-5.36;76.63;99825.41;1748166;80;21200;-52
2021/01/21 03:00:51;;;;;;;;;;;;;;;-5.33;76.65;99818.87;1731148;80;21640;-54
2021/01/21 03:03:22;;;;;;;26.20;11.37;;;;;;;-5.31;76.71;99821.10;1720072;81;20257;-53
2021/01/21 03:05:55;;;;;;;31.40;12.80;;;;;;;-5.30;76.71;99816.74;1755352;80;21463;-51
2021/01/21 03:08:26;;;;;;;28.00;11.20;;;;;;;-5.29;76.72;99818.52;1728477;81;21454;-52
2021/01/21 03:11:11;;;;;;;33.70;13.23;;;;;;;-5.27;76.73;99811.55;1726165;81;21201;-50
2021/01/21 03:13:42;;;;;;;27.33;10.23;;;;;;;-5.26;76.75;99814.17;1751421;80;21102;-52
2021/01/21 03:16:09;;;;;;;23.33;9.10;;;;;;;-5.22;76.76;99819.05;1705626;81;21222;-53
2021/01/21 03:18:37;;;;;;;34.67;14.17;;;;;;;-5.21;76.75;99822.14;1733734;80;21736;-54
2021/01/21 03:21:07;;;;;;;36.77;14.30;;;;;;;-5.20;76.83;99824.80;1717701;81;21213;-50
2021/01/21 03:23:42;;;;;;;28.10;11.00;;;;;;;-5.19;76.83;99833.55;1731875;80;22588;-53
2021/01/21 03:26:05;;;;;;;27.60;12.30;;;;;;;-5.17;76.90;99835.31;1732636;80;21179;-51
2021/01/21 03:28:33;;;;;;;29.37;12.20;;;;;;;-5.15;76.87;99834.92;1732273;80;21239;-52
2021/01/21 03:31:01;;;;;;;29.47;12.10;;;;;;;-5.13;76.91;99829.70;1720321;80;21232;-50
2021/01/21 03:33:28;;;;;;;28.47;12.13;;;;;;;-5.11;76.91;99832.81;1730906;80;21567;-53
2021/01/21 03:35:57;;;;;;;28.60;11.00;;;;;;;-5.09;76.95;99832.80;1706565;80;21217;-51
2021/01/21 03:38:24;;;;;;;30.90;13.17;;;;;;;-5.07;76.96;99829.36;1729984;80;21493;-52
2021/01/21 03:41:10;;;;;;;26.50;12.13;;;;;;;-5.06;76.97;99835.06;1731795;80;21328;-51
2021/01/21 03:43:39;;;;;;;30.17;11.97;;;;;;;-5.04;76.98;99829.41;1735117;80;21693;-49
2021/01/21 03:46:23;;;;;;;34.47;14.17;;;;;;;-4.99;77.05;99827.73;1865455;75;23122;-53
2021/01/21 03:48:51;;;;;;;32.33;13.37;;;;;;;-5.01;77.06;99827.23;1841943;76;21218;-56
2021/01/21 03:51:44;;;;;;;32.53;14.13;;;;;;;-4.96;77.09;99821.65;1863249;74;25247;-50
2021/01/21 03:54:30;;;;;;;25.97;11.17;;;;;;;-5.00;77.08;99822.45;1833032;75;21190;-52
2021/01/21 03:56:58;;;;;;;30.67;12.77;;;;;;;-5.00;77.14;99814.14;1832526;75;21416;-52
2021/01/21 03:59:26;;;;;;;31.37;12.60;;;;;;;-4.99;77.21;99814.60;1830949;75;21193;-55
2021/01/21 04:01:55;;;;;;;25.00;10.27;;;;;;;-4.97;77.24;99810.69;1834093;75;21166;-53
2021/01/21 04:04:22;;;;;;;33.07;13.90;;;;;;;-4.97;77.26;99813.31;1838176;75;21606;-50
2021/01/21 04:06:50;;;;;;;36.10;13.97;;;;;;;-4.96;77.28;99809.84;1833120;75;21163;-52
2021/01/21 04:09:20;;;;;;;35.40;14.50;;;;;;;-4.93;77.38;99815.11;1837424;75;21208;-51
2021/01/21 04:12:07;;;;;;;29.60;12.37;;;;;;;-4.93;77.37;99821.67;1766948;78;21268;-50
2021/01/21 04:14:35;;;;;;;37.23;14.37;;;;;;;-4.91;77.38;99825.21;1785397;78;20965;-55
2021/01/21 04:17:02;;;;;;;35.63;13.57;;;;;;;-4.89;77.42;99825.23;1798589;77;21595;-53
2021/01/21 04:19:30;;;;;;;24.90;11.43;;;;;;;-4.88;77.42;99824.38;1798173;77;21204;-53
2021/01/21 04:21:57;;;;;;;31.97;12.70;;;;;;;-4.86;77.44;99829.23;1800249;77;21635;-51
2021/01/21 04:24:25;;;;;;;31.57;13.43;;;;;;;-4.85;77.48;99820.50;1773040;78;21195;-52
2021/01/21 04:26:55;;;;;;;35.27;13.27;;;;;;;-4.82;77.50;99816.58;1802189;77;21188;-52
2021/01/21 04:29:24;;;;;;;35.60;13.40;;;;;;;-4.83;77.46;99818.75;1796158;77;21599;-49
2021/01/21 04:31:53;;;;;;;39.77;15.60;;;;;;;-4.82;77.46;99818.78;1774785;78;21168;-51
2021/01/21 04:34:22;;;;;;;34.53;11.77;;;;;;;-4.81;77.54;99822.29;1798203;77;21648;-52
2021/01/21 04:36:51;;;;;;;36.53;15.33;;;;;;;-4.82;77.53;99825.34;1800280;77;21132;-55
2021/01/21 04:39:20;;;;;;;39.53;16.43;;;;;;;-4.80;77.57;99815.75;1740869;78;21147;-52
2021/01/21 04:41:47;;;;;;;38.33;14.23;;;;;;;-4.81;77.58;99821.86;1791463;77;21599;-56
2021/01/21 04:44:22;;;;;;;27.80;11.73;;;;;;;-4.81;77.57;99817.04;1778601;78;21128;-53
2021/01/21 04:47:00;;;;;;;28.20;12.30;;;;;;;-4.80;77.63;99812.24;1780767;78;22055;-54
2021/01/21 04:49:29;;;;;;;33.40;14.57;;;;;;;-4.77;77.66;99814.92;1751993;78;21178;-50
2021/01/21 04:51:58;;;;;;;36.93;15.80;;;;;;;-4.75;77.65;99817.12;1731654;80;21158;-52
2021/01/21 04:54:32;;;;;;;37.13;15.33;;;;;;;-4.75;77.68;99810.55;1746252;79;21491;-53
2021/01/21 04:57:07;;;;;;;29.73;13.57;;;;;;;-4.74;77.68;99816.26;1750796;79;21102;-54
2021/01/21 04:59:49;;;;;;;37.40;15.57;;;;;;;-4.68;77.72;99816.37;1822742;75;25086;-52
2021/01/21 05:02:28;;;;;;;28.03;10.40;;;;;;;-4.69;77.72;99818.11;1790816;77;21155;-52
2021/01/21 05:05:09;;;;;;;42.40;18.23;;;;;;;-4.67;77.72;99816.78;1786933;77;22809;-51
2021/01/21 05:07:39;;;;;;;42.90;16.20;;;;;;;-4.65;77.72;99817.70;1793260;77;20937;-55
2021/01/21 05:10:08;;;;;;;46.27;19.40;;;;;;;-4.63;77.69;99816.87;1769115;77;21316;-53
2021/01/21 05:12:36;;;;;;;37.90;15.67;;;;;;;-4.63;77.68;99811.61;1794674;77;20941;-53
2021/01/21 05:15:22;;;;;;;38.10;15.77;;;;;;;-4.64;77.71;99799.34;1793051;77;22363;-53
2021/01/21 05:18:08;;;;;;;45.13;19.17;;;;;;;-4.63;77.71;99811.61;1790853;77;22289;-54
2021/01/21 05:20:45;;;;;;;49.97;20.97;;;;;;;-4.63;77.76;99807.67;1783617;77;21205;-54
2021/01/21 05:23:25;;;;;;;34.00;14.63;;;;;;;-4.54;77.77;99812.59;1868105;75;25906;-53
2021/01/21 05:25:54;;;;;;;37.90;14.70;;;;;;;-4.55;77.74;99821.33;1832030;76;21163;-53
2021/01/21 05:28:27;;;;;;;40.17;16.30;;;;;;;-4.52;77.70;99826.64;1812760;76;21207;-55
2021/01/21 05:30:59;;;;;;;35.43;16.10;;;;;;;-4.51;77.68;99820.09;1835400;76;21176;-51
2021/01/21 05:33:40;;;;;;;33.00;13.75;;;;;;;-4.49;77.65;99804.33;1815251;76;20960;-53
2021/01/21 05:36:19;;;;;;;40.13;16.30;;;;;;;-4.48;77.66;99804.78;1830582;76;21234;-52
2021/01/21 05:38:57;;;;;;;40.63;18.07;;;;;;;-4.45;77.64;99814.03;1834010;76;21185;-52
2021/01/21 05:41:26;;;;;;;30.57;12.83;;;;;;;-4.43;77.62;99817.56;1827878;76;21484;-53
2021/01/21 05:44:07;;;;;;;33.73;16.37;;;;;;;-4.41;77.61;99821.06;1787263;77;21416;-52
2021/01/21 05:46:47;;;;;;;31.10;13.70;;;;;;;-4.36;77.59;99827.28;1846222;75;24297;-53
2021/01/21 05:49:15;;;;;;;40.93;15.93;;;;;;;-4.38;77.60;99835.56;1749681;77;21196;-56
2021/01/21 05:51:43;;;;;;;41.03;18.47;;;;;;;-4.34;77.57;99843.95;1792436;77;21240;-53
2021/01/21 05:54:13;;;;;;;36.50;18.60;;;;;;;-4.32;77.52;99846.15;1761088;77;21675;-56
2021/01/21 05:56:42;;;;;;;33.13;16.17;;;;;;;-4.29;77.55;99846.20;1791007;77;22284;-56
2021/01/21 05:59:17;;;;;;;33.57;15.57;;;;;;;-4.26;77.49;99838.37;1794545;77;22034;-52
2021/01/21 06:01:47;;;;;;;35.97;16.37;;;;;;;-4.22;77.45;99850.66;1794301;77;21774;-57
2021/01/21 06:04:17;;;;;;;36.50;16.23;;;;;;;-4.20;77.39;99851.14;1794402;77;21204;-52
2021/01/21 06:06:46;;;;;;;41.13;15.87;;;;;;;-4.17;77.39;99833.65;1761168;77;21550;-51
2021/01/21 06:09:15;;;;;;;28.00;11.13;;;;;;;-4.15;77.36;99840.67;1761306;77;21213;-51
2021/01/21 06:11:43;;;;;;;39.83;16.37;;;;;;;-4.12;77.29;99836.77;1792040;77;21206;-54
2021/01/21 06:14:11;;;;;;;41.50;18.30;;;;;;;-4.12;77.30;99834.14;1774726;77;21533;-54
2021/01/21 06:16:38;;;;;;;33.20;14.23;;;;;;;-4.10;77.28;99837.68;1794206;77;23248;-52
2021/01/21 06:19:06;;;;;;;34.80;15.07;;;;;;;-4.08;77.25;99838.55;1798358;77;21982;-58
2021/01/21 06:21:52;;;;;;;34.23;16.60;;;;;;;-4.08;77.21;99838.55;1789378;77;21349;-55
2021/01/21 06:24:28;;;;;;;35.37;17.87;;;;;;;-4.05;77.21;99835.09;1790390;77;21199;-56
2021/01/21 06:27:00;;;;;;;38.13;16.83;;;;;;;-4.04;77.18;99831.17;1796333;77;21110;-52
2021/01/21 06:29:28;;;;;;;47.80;25.27;;;;;;;-4.02;77.21;99837.33;1768331;77;21586;-56
2021/01/21 06:32:04;;;;;;;43.03;21.47;;;;;;;-4.00;77.21;99830.78;1792253;77;21206;-51
2021/01/21 06:34:35;;;;;;;40.80;17.43;;;;;;;-3.96;77.25;99843.08;1791807;77;21438;-53
2021/01/21 06:37:15;;;;;;;43.77;19.20;;;;;;;-3.92;77.22;99840.95;1791679;77;21194;-54
2021/01/21 06:40:06;;;;;;;34.87;15.40;;;;;;;-3.89;77.22;99838.33;1791870;77;22331;-50
2021/01/21 06:42:37;;;;;;;42.27;18.07;;;;;;;-3.87;77.19;99836.18;1785351;77;21882;-54
2021/01/21 06:45:05;;;;;;;37.83;17.60;;;;;;;-3.85;77.22;99841.03;1774124;79;21206;-55
2021/01/21 06:47:33;;;;;;;44.47;19.03;;;;;;;-3.84;77.19;99840.17;1772443;79;21217;-53
2021/01/21 06:50:04;;;;;;;33.67;16.33;;;;;;;-3.80;77.22;99841.06;1778190;78;21471;-54
2021/01/21 06:52:33;;;;;;;37.03;17.10;;;;;;;-3.79;77.21;99830.11;1769843;79;21178;-52
2021/01/21 06:55:03;;;;;;;40.93;17.73;;;;;;;-3.77;77.27;99831.02;1769327;79;21245;-54
2021/01/21 06:57:39;;;;;;;35.87;17.40;;;;;;;-3.72;77.22;99824.05;1771350;78;21182;-53
2021/01/21 07:00:12;;;;;;;36.60;14.97;;;;;;;-3.69;77.25;99824.97;1771825;78;21549;-56
2021/01/21 07:02:48;;;;;;;37.13;16.73;;;;;;;-3.63;77.22;99830.28;1770051;79;21238;-54
2021/01/21 07:05:21;;;;;;;39.30;16.80;;;;;;;-3.58;77.15;99829.91;1768683;79;21557;-53
2021/01/21 07:07:59;;;;;;;37.17;17.27;;;;;;;-3.54;77.12;99830.37;1770364;78;23098;-54
2021/01/21 07:10:42;;;;;;;37.37;16.80;;;;;;;-3.51;77.08;99819.00;1775974;79;21155;-54
2021/01/21 07:13:19;;;;;;;35.60;15.83;;;;;;;-3.47;77.04;99824.72;1773692;79;21024;-53
2021/01/21 07:15:50;;;;;;;32.03;15.53;;;;;;;-3.44;77.05;99823.44;1744340;80;21482;-54
2021/01/21 07:18:24;;;;;;;38.87;19.30;;;;;;;-3.40;77.00;99823.05;1777029;79;21503;-54
2021/01/21 07:21:06;;;;;;;37.90;17.67;;;;;;;-3.37;76.94;99828.32;1772272;79;21213;-54
2021/01/21 07:23:55;;;;;;;36.73;16.00;;;;;;;-3.35;76.94;99822.64;1769307;79;21465;-57
2021/01/21 07:26:35;;;;;;;46.63;19.90;;;;;;;-3.32;76.97;99824.88;1772134;79;21198;-55
2021/01/21 07:29:12;;;;;;;40.40;18.37;;;;;;;-3.25;76.92;99815.27;1773425;78;21103;-50
2021/01/21 07:31:59;;;;;;;40.03;17.03;;;;;;;-3.23;76.84;99809.13;1772805;79;21110;-55
2021/01/21 07:34:41;;;;;;;36.80;15.43;;;;;;;-3.17;76.82;99810.95;1774532;78;21195;-54
2021/01/21 07:37:29;;;;;;;34.97;16.77;;;;;;;-3.15;76.75;99810.06;1771482;79;21129;-53
2021/01/21 07:40:05;;;;;;;44.23;18.67;;;;;;;-3.11;76.73;99812.30;1771037;78;21947;-50
2021/01/21 07:42:41;;;;;;;39.03;17.40;;;;;;;-3.07;76.72;99817.62;1776699;79;21103;-56
2021/01/21 07:45:14;;;;;;;35.40;17.50;;;;;;;-3.02;76.64;99808.41;1778147;78;21103;-51
2021/01/21 07:47:42;;;;;;;42.70;18.63;;;;;;;-2.98;76.60;99804.95;1776232;78;22004;-53
2021/01/21 07:50:34;;;;;;;37.73;19.17;;;;;;;-2.94;76.58;99810.66;1776952;79;20941;-53
2021/01/21 07:53:04;;;;;;;38.07;16.77;;;;;;;-2.91;76.57;99796.21;1781041;79;20980;-51
2021/01/21 07:55:37;;;;;;;37.17;18.90;;;;;;;-2.81;76.48;99793.20;1778534;79;21126;-52
2021/01/21 07:58:21;;;;;;;40.47;18.07;;;;;;;-2.74;76.38;99789.29;1775631;78;20969;-52
2021/01/21 08:00:55;;;;;;;35.92;18.15;;;;;;;-2.67;76.25;99788.88;1712722;81;22588;-53
2021/01/21 08:03:34;;;;;;;39.43;19.30;;;;;;;-2.61;76.16;99783.62;1773397;79;20996;-55
2021/01/21 08:06:17;;;;;;;42.00;20.00;;;;;;;-2.58;76.08;99786.30;1777970;79;21115;-54
2021/01/21 08:08:50;;;;;;;45.27;21.10;;;;;;;-2.53;76.01;99780.59;1774641;78;21269;-53
2021/01/21 08:11:20;;;;;;;43.70;20.62;;;;;;;-2.46;75.88;99781.49;1770826;79;21103;-53
2021/01/21 08:13:56;;;;;;;42.53;20.67;;;;;;;-2.41;75.74;99787.69;1773120;79;22294;-53
2021/01/21 08:16:23;;;;;;;41.47;21.97;;;;;;;-2.36;75.61;99789.45;1777903;79;21915;-53
2021/01/21 08:19:02;;;;;;;44.73;21.37;;;;;;;-2.32;75.43;99793.00;1780885;79;21114;-51
2021/01/21 08:21:29;;;;;;;45.63;22.50;;;;;;;-2.27;75.33;99791.68;1770768;79;21146;-56
2021/01/21 08:24:01;;;;;;;45.27;21.97;;;;;;;-2.22;75.35;99789.97;1766511;79;21150;-53
2021/01/21 08:26:30;;;;;;;41.27;21.20;;;;;;;-2.15;75.21;99788.66;1769806;79;23285;-56
2021/01/21 08:28:58;;;;;;;42.80;19.83;;;;;;;-2.04;75.10;99799.25;1776809;79;22517;-53
2021/01/21 08:31:49;;;;;;;38.17;18.97;;;;;;;-1.95;74.95;99781.67;1770933;78;21194;-53
2021/01/21 08:34:23;;;;;;;45.93;21.50;;;;;;;-1.85;74.82;99789.17;1776668;79;21178;-57
2021/01/21 08:37:03;;;;;;;39.07;19.70;;;;;;;-1.75;74.59;99787.43;1775151;79;21170;-53
2021/01/21 08:39:30;;;;;;;40.60;19.10;;;;;;;-1.64;74.43;99780.42;1769734;79;21612;-56
2021/01/21 08:41:57;;;;;;;32.07;14.90;;;;;;;-1.53;74.19;99780.84;1765959;79;21519;-51
2021/01/21 08:44:24;;;;;;;36.43;17.00;;;;;;;-1.45;73.92;99772.96;1769902;79;21167;-56
2021/01/21 08:46:59;;;;;;;37.10;18.87;;;;;;;-1.37;73.71;99776.48;1768763;79;21198;-51
2021/01/21 08:49:29;;;;;;;34.97;17.10;;;;;;;-1.30;73.55;99783.95;1771417;79;21166;-53
2021/01/21 08:52:08;;;;;;;36.47;19.30;;;;;;;-1.22;73.43;99776.47;1768851;79;21634;-55
2021/01/21 08:54:36;;;;;;;42.37;21.50;;;;;;;-1.12;73.19;99786.59;1773324;78;21608;-54
2021/01/21 08:57:09;;;;;;;44.23;21.43;;;;;;;-1.07;72.87;99783.48;1771433;79;21225;-56
2021/01/21 08:59:39;;;;;;;36.70;20.15;;;;;;;-1.03;72.72;99793.63;1764328;79;21187;-51
2021/01/21 09:02:06;;;;;;;43.83;19.70;;;;;;;-1.00;72.62;99790.95;1772223;78;21179;-52
2021/01/21 09:04:35;;;;;;;45.37;21.57;;;;;;;-0.98;72.50;99786.13;1734917;81;21680;-53
2021/01/21 09:07:05;;;;;;;39.70;20.80;;;;;;;-0.96;72.30;99784.80;1769602;79;21579;-54
2021/01/21 09:09:34;;;;;;;45.50;22.83;;;;;;;-0.95;72.17;99776.88;1770479;79;21187;-55
2021/01/21 09:12:18;;;;;;;44.33;21.47;;;;;;;-0.95;72.12;99779.96;1772206;79;21190;-56
2021/01/21 09:15:11;;;;;;;42.17;19.90;;;;;;;-0.94;72.10;99776.00;1771048;79;21442;-53
2021/01/21 09:17:40;;;;;;;42.63;20.23;;;;;;;-0.87;72.05;99768.94;1769355;79;22020;-55
2021/01/21 09:20:24;;;;;;;37.27;19.03;;;;;;;-0.80;71.97;99771.55;1768749;79;21202;-52
2021/01/21 09:22:54;;;;;;;42.75;23.60;;;;;;;-0.71;71.89;99761.41;1767166;79;21115;-57
2021/01/21 09:25:23;;;;;;;42.60;20.80;;;;;;;-0.64;71.84;99762.25;1770535;78;23563;-51
2021/01/21 09:27:56;;;;;;;40.93;21.37;;;;;;;-0.58;71.69;99760.91;1769410;79;21174;-53
2021/01/21 09:30:23;;;;;;;44.93;20.33;;;;;;;-0.51;71.53;99766.64;1774373;79;21574;-53
2021/01/21 09:32:50;;;;;;;43.77;21.40;;;;;;;-0.47;71.34;99765.28;1771490;79;21206;-53
2021/01/21 09:35:19;;;;;;;39.83;19.70;;;;;;;-0.43;71.19;99761.75;1771104;79;21178;-55
2021/01/21 09:37:53;;;;;;;42.23;21.27;;;;;;;-0.40;70.93;99751.58;1775093;78;20975;-54
2021/01/21 09:40:31;;;;;;;35.25;19.05;;;;;;;-0.37;70.79;99759.95;1770716;78;21111;-53
2021/01/21 09:43:04;;;;;;;37.63;19.97;;;;;;;-0.35;70.71;99760.40;1773608;79;21263;-52
2021/01/21 09:45:32;;;;;;;40.20;19.93;;;;;;;-0.30;70.57;99757.72;1767405;79;21537;-54
2021/01/21 09:50:40;;;;;;;42.70;21.70;;;;;;;-0.22;70.26;99755.47;1865739;75;26915;-55
2021/01/21 09:53:07;;;;;;;40.57;22.03;;;;;;;-0.27;70.23;99758.59;1840712;75;20975;-55
2021/01/21 09:55:35;;;;;;;42.13;20.23;;;;;;;-0.26;70.21;99756.39;1835110;76;21196;-56
2021/01/21 09:58:04;;;;;;;39.73;19.70;;;;;;;-0.23;70.20;99750.19;1835697;76;21119;-56
2021/01/21 10:00:31;;;;;;;46.17;21.23;;;;;;;-0.20;70.20;99755.03;1835443;76;21401;-54
2021/01/21 10:02:58;;;;;;;42.23;20.63;;;;;;;-0.15;70.15;99747.94;1780911;78;21437;-54
2021/01/21 10:05:26;;;;;;;36.83;19.40;;;;;;;-0.10;70.05;99750.58;1766506;79;21502;-55
2021/01/21 10:07:54;;;;;;;39.73;19.73;;;;;;;-0.03;70.03;99750.97;1778485;78;21521;-57
2021/01/21 10:10:22;;;;;;;40.00;20.30;;;;;;;0.00;69.94;99742.55;1766629;79;21273;-56
2021/01/21 10:12:49;;;;;;;33.50;18.17;;;;;;;0.06;69.80;99744.74;1800467;78;20984;-55
2021/01/21 10:15:19;;;;;;;41.63;22.13;;;;;;;0.09;69.69;99742.94;1803228;78;21351;-54
2021/01/21 10:17:47;;;;;;;36.53;19.60;;;;;;;0.10;69.66;99742.50;1780626;78;21531;-55
2021/01/21 10:20:16;;;;;;;39.27;21.57;;;;;;;0.11;69.63;99745.58;1776009;79;21831;-57
2021/01/21 10:22:43;;;;;;;44.57;21.83;;;;;;;0.13;69.59;99742.48;1808266;77;21170;-56
2021/01/21 10:25:11;;;;;;;37.93;20.60;;;;;;;0.15;69.43;99732.33;1776613;78;21152;-58
2021/01/21 10:27:38;;;;;;;34.10;17.73;;;;;;;0.14;69.32;99723.95;1766878;79;21164;-57
2021/01/21 10:30:07;;;;;;;35.50;20.23;;;;;;;0.12;69.24;99720.88;1801290;78;21108;-57
2021/01/21 10:32:34;;;;;;;43.43;20.87;;;;;;;0.10;69.23;99722.20;1780220;79;21005;-55
2021/01/21 10:35:04;;;;;;;41.37;22.00;;;;;;;0.07;69.20;99721.36;1802368;77;21163;-56
2021/01/21 10:37:32;;;;;;;36.53;20.70;;;;;;;0.05;69.28;99728.42;1785035;78;21627;-54
2021/01/21 10:41:14;;;;;;;41.33;20.67;;;;;;;0.10;69.32;99717.35;1869114;75;27026;-57
2021/01/21 10:43:41;;;;;;;36.37;18.83;;;;;;;0.07;69.29;99713.42;1846030;76;21167;-58
2021/01/21 10:46:09;;;;;;;41.00;21.33;;;;;;;0.08;69.29;99708.57;1846533;76;23380;-56
2021/01/21 10:48:36;;;;;;;44.37;22.37;;;;;;;0.07;69.30;99703.72;1842535;76;21182;-58
2021/01/21 10:51:04;;;;;;;36.77;19.80;;;;;;;0.06;69.36;99716.95;1848578;76;21203;-56
2021/01/21 10:53:31;;;;;;;35.93;19.63;;;;;;;0.05;69.39;99720.48;1847314;75;20946;-58
2021/01/21 10:55:59;;;;;;;33.30;16.80;;;;;;;0.04;69.43;99721.38;1850982;75;21402;-56
2021/01/21 10:58:26;;;;;;;35.40;18.20;;;;;;;0.03;69.45;99715.64;1846640;76;21276;-57
2021/01/21 11:00:53;;;;;;;34.40;19.00;;;;;;;0.00;69.51;99710.80;1844069;76;21071;-55
2021/01/21 11:03:21;;;;;;;36.87;19.00;;;;;;;-0.02;69.61;99702.02;1842757;76;21038;-56
2021/01/21 11:05:48;;;;;;;44.80;22.10;;;;;;;-0.02;69.71;99690.11;1842978;76;21550;-58
2021/01/21 11:08:16;;;;;;;38.00;19.93;;;;;;;0.00;69.71;99700.20;1845574;75;21084;-57
2021/01/21 11:10:43;;;;;;;36.17;19.50;;;;;;;0.00;69.78;99703.33;1845147;76;21370;-56
2021/01/21 11:13:16;;;;;;;42.43;19.87;;;;;;;-0.01;69.85;99701.13;1844442;76;21570;-59
2021/01/21 11:15:39;;;;;;;41.03;20.67;;;;;;;0.02;69.87;99691.38;1843192;76;21227;-58
2021/01/21 11:18:07;;;;;;;35.60;20.23;;;;;;;0.03;69.89;99700.64;1847040;76;21175;-56
2021/01/21 11:20:35;;;;;;;39.47;19.30;;;;;;;0.02;69.91;99691.38;1846251;75;21156;-58
2021/01/21 11:23:03;;;;;;;36.30;20.43;;;;;;;0.02;69.95;99692.70;1846797;76;21659;-56
2021/01/21 11:25:30;;;;;;;37.87;21.10;;;;;;;0.01;69.98;99698.44;1848379;76;21181;-56
2021/01/21 11:27:59;;;;;;;37.37;19.27;;;;;;;-0.01;69.99;99689.22;1841153;76;21178;-57
2021/01/21 11:30:27;;;;;;;40.00;22.23;;;;;;;-0.01;70.14;99685.69;1846710;76;21104;-56
2021/01/21 11:32:54;;;;;;;37.27;20.57;;;;;;;0.02;70.17;99693.59;1846032;76;21465;-55
2021/01/21 11:35:22;;;;;;;33.03;18.27;;;;;;;0.04;70.19;99688.30;1843412;76;21195;-55
2021/01/21 11:37:49;;;;;;;41.07;19.93;;;;;;;0.05;70.18;99688.28;1847423;76;21763;-57
2021/01/21 11:40:16;;;;;;;41.23;19.83;;;;;;;0.04;70.20;99683.00;1839706;76;21175;-57
2021/01/21 11:42:44;;;;;;;34.97;20.03;;;;;;;0.04;70.21;99687.84;1843794;76;21166;-57
2021/01/21 11:45:12;;;;;;;40.93;20.63;;;;;;;0.04;70.33;99677.70;1844418;76;21183;-58